sensor_id;sensor_type;location;lat;lon;timestamp;temperature;humidity
32502;DHT22;18952;52.516;13.460;2024-02-21T00:00:25;8.50;71.70
32502;DHT22;18952;52.516;13.460;2024-02-21T00:02:54;8.30;72.00
32502;DHT22;18952;52.516;13.460;2024-02-21T00:05:24;8.40;72.20
32502;DHT22;18952;52.516;13.460;2024-02-21T00:07:51;8.40;71.90
32502;DHT22;18952;52.516;13.460;2024-02-21T00:10:18;8.40;71.90
32502;DHT22;18952;52.516;13.460;2024-02-21T00:12:46;8.30;72.00
32502;DHT22;18952;52.516;13.460;2024-02-21T00:15:14;8.30;71.90
32502;DHT22;18952;52.516;13.460;2024-02-21T00:17:43;8.30;71.90
32502;DHT22;18952;52.516;13.460;2024-02-21T00:20:11;8.30;71.90
32502;DHT22;18952;52.516;13.460;2024-02-21T00:22:39;8.30;71.70
32502;DHT22;18952;52.516;13.460;2024-02-21T00:25:06;8.40;71.70
32502;DHT22;18952;52.516;13.460;2024-02-21T00:27:35;8.30;72.20
32502;DHT22;18952;52.516;13.460;2024-02-21T00:30:06;8.30;72.40
32502;DHT22;18952;52.516;13.460;2024-02-21T00:32:33;8.40;72.70
32502;DHT22;18952;52.516;13.460;2024-02-21T00:35:02;8.30;72.60
32502;DHT22;18952;52.516;13.460;2024-02-21T00:37:29;8.20;73.40
32502;DHT22;18952;52.516;13.460;2024-02-21T00:39:56;8.10;73.50
32502;DHT22;18952;52.516;13.460;2024-02-21T00:42:24;8.20;73.40
32502;DHT22;18952;52.516;13.460;2024-02-21T00:44:52;8.00;73.40
32502;DHT22;18952;52.516;13.460;2024-02-21T00:47:19;8.00;73.50
32502;DHT22;18952;52.516;13.460;2024-02-21T00:49:50;8.20;73.00
32502;DHT22;18952;52.516;13.460;2024-02-21T00:52:19;8.30;72.50
32502;DHT22;18952;52.516;13.460;2024-02-21T00:54:49;8.20;72.70
32502;DHT22;18952;52.516;13.460;2024-02-21T00:57:21;8.20;72.60
32502;DHT22;18952;52.516;13.460;2024-02-21T00:59:51;8.20;72.40
32502;DHT22;18952;52.516;13.460;2024-02-21T01:02:18;8.20;72.30
32502;DHT22;18952;52.516;13.460;2024-02-21T01:04:46;8.30;72.00
32502;DHT22;18952;52.516;13.460;2024-02-21T01:07:16;8.40;71.80
32502;DHT22;18952;52.516;13.460;2024-02-21T01:09:44;8.40;71.40
32502;DHT22;18952;52.516;13.460;2024-02-21T01:12:12;8.30;71.30
32502;DHT22;18952;52.516;13.460;2024-02-21T01:14:39;8.30;71.80
32502;DHT22;18952;52.516;13.460;2024-02-21T01:17:06;8.30;71.70
32502;DHT22;18952;52.516;13.460;2024-02-21T01:19:36;8.20;71.50
32502;DHT22;18952;52.516;13.460;2024-02-21T01:22:05;8.30;71.80
32502;DHT22;18952;52.516;13.460;2024-02-21T01:24:35;8.20;71.90
32502;DHT22;18952;52.516;13.460;2024-02-21T01:27:05;8.20;71.90
32502;DHT22;18952;52.516;13.460;2024-02-21T01:29:32;8.20;71.80
32502;DHT22;18952;52.516;13.460;2024-02-21T01:32:00;8.20;71.80
32502;DHT22;18952;52.516;13.460;2024-02-21T01:34:26;8.20;71.60
32502;DHT22;18952;52.516;13.460;2024-02-21T01:36:59;8.20;71.80
32502;DHT22;18952;52.516;13.460;2024-02-21T01:39:26;8.20;71.70
32502;DHT22;18952;52.516;13.460;2024-02-21T01:41:55;8.30;71.50
32502;DHT22;18952;52.516;13.460;2024-02-21T01:44:22;8.20;72.30
32502;DHT22;18952;52.516;13.460;2024-02-21T01:46:51;8.20;72.00
32502;DHT22;18952;52.516;13.460;2024-02-21T01:49:26;8.20;72.10
32502;DHT22;18952;52.516;13.460;2024-02-21T01:51:55;8.30;71.90
32502;DHT22;18952;52.516;13.460;2024-02-21T01:54:25;8.30;71.50
32502;DHT22;18952;52.516;13.460;2024-02-21T01:56:54;8.30;71.30
32502;DHT22;18952;52.516;13.460;2024-02-21T01:59:22;8.40;71.30
32502;DHT22;18952;52.516;13.460;2024-02-21T02:01:51;8.40;70.90
32502;DHT22;18952;52.516;13.460;2024-02-21T02:04:20;8.20;71.30
32502;DHT22;18952;52.516;13.460;2024-02-21T02:06:47;8.30;71.50
32502;DHT22;18952;52.516;13.460;2024-02-21T02:09:14;8.30;71.00
32502;DHT22;18952;52.516;13.460;2024-02-21T02:11:43;8.30;71.40
32502;DHT22;18952;52.516;13.460;2024-02-21T02:14:10;8.30;71.30
32502;DHT22;18952;52.516;13.460;2024-02-21T02:16:38;8.30;71.50
32502;DHT22;18952;52.516;13.460;2024-02-21T02:19:06;8.30;71.10
32502;DHT22;18952;52.516;13.460;2024-02-21T02:21:39;8.40;71.10
32502;DHT22;18952;52.516;13.460;2024-02-21T02:24:09;8.40;71.60
32502;DHT22;18952;52.516;13.460;2024-02-21T02:26:36;8.40;72.50
32502;DHT22;18952;52.516;13.460;2024-02-21T02:29:04;8.30;72.80
32502;DHT22;18952;52.516;13.460;2024-02-21T02:31:31;8.20;73.70
32502;DHT22;18952;52.516;13.460;2024-02-21T02:33:59;8.10;74.50
32502;DHT22;18952;52.516;13.460;2024-02-21T02:36:28;7.90;75.30
32502;DHT22;18952;52.516;13.460;2024-02-21T02:38:55;7.90;76.40
32502;DHT22;18952;52.516;13.460;2024-02-21T02:41:22;7.70;77.40
32502;DHT22;18952;52.516;13.460;2024-02-21T02:43:51;7.70;77.90
32502;DHT22;18952;52.516;13.460;2024-02-21T02:46:20;7.60;78.00
32502;DHT22;18952;52.516;13.460;2024-02-21T02:48:48;7.60;78.70
32502;DHT22;18952;52.516;13.460;2024-02-21T02:51:15;7.40;79.20
32502;DHT22;18952;52.516;13.460;2024-02-21T02:53:43;7.30;79.70
32502;DHT22;18952;52.516;13.460;2024-02-21T02:56:14;7.30;80.70
32502;DHT22;18952;52.516;13.460;2024-02-21T02:58:43;7.30;81.00
32502;DHT22;18952;52.516;13.460;2024-02-21T03:01:10;7.30;81.50
32502;DHT22;18952;52.516;13.460;2024-02-21T03:03:39;7.30;81.80
32502;DHT22;18952;52.516;13.460;2024-02-21T03:06:06;7.30;82.00
32502;DHT22;18952;52.516;13.460;2024-02-21T03:08:34;7.40;81.70
32502;DHT22;18952;52.516;13.460;2024-02-21T03:11:01;7.30;81.50
32502;DHT22;18952;52.516;13.460;2024-02-21T03:13:29;7.30;82.00
32502;DHT22;18952;52.516;13.460;2024-02-21T03:15:57;7.30;82.30
32502;DHT22;18952;52.516;13.460;2024-02-21T03:18:26;7.30;82.60
32502;DHT22;18952;52.516;13.460;2024-02-21T03:20:54;7.30;83.00
32502;DHT22;18952;52.516;13.460;2024-02-21T03:23:20;7.30;83.20
32502;DHT22;18952;52.516;13.460;2024-02-21T03:25:48;7.30;83.00
32502;DHT22;18952;52.516;13.460;2024-02-21T03:28:17;7.30;83.10
32502;DHT22;18952;52.516;13.460;2024-02-21T03:30:45;7.30;83.30
32502;DHT22;18952;52.516;13.460;2024-02-21T03:33:13;7.30;83.60
32502;DHT22;18952;52.516;13.460;2024-02-21T03:35:41;7.30;83.70
32502;DHT22;18952;52.516;13.460;2024-02-21T03:38:12;7.30;83.80
32502;DHT22;18952;52.516;13.460;2024-02-21T03:40:43;7.20;84.30
32502;DHT22;18952;52.516;13.460;2024-02-21T03:43:12;7.10;84.80
32502;DHT22;18952;52.516;13.460;2024-02-21T03:45:42;7.20;85.10
32502;DHT22;18952;52.516;13.460;2024-02-21T03:48:11;7.20;85.00
32502;DHT22;18952;52.516;13.460;2024-02-21T03:50:39;7.10;85.50
32502;DHT22;18952;52.516;13.460;2024-02-21T03:53:06;7.10;85.50
32502;DHT22;18952;52.516;13.460;2024-02-21T03:55:34;7.10;85.90
32502;DHT22;18952;52.516;13.460;2024-02-21T03:58:02;7.00;86.30
32502;DHT22;18952;52.516;13.460;2024-02-21T04:00:30;7.00;86.10
32502;DHT22;18952;52.516;13.460;2024-02-21T04:02:57;6.90;86.70
32502;DHT22;18952;52.516;13.460;2024-02-21T04:05:26;7.00;86.70
32502;DHT22;18952;52.516;13.460;2024-02-21T04:07:54;7.00;86.30
32502;DHT22;18952;52.516;13.460;2024-02-21T04:10:21;7.10;86.70
32502;DHT22;18952;52.516;13.460;2024-02-21T04:12:48;7.00;86.80
32502;DHT22;18952;52.516;13.460;2024-02-21T04:15:17;7.10;86.50
32502;DHT22;18952;52.516;13.460;2024-02-21T04:17:45;7.10;86.40
32502;DHT22;18952;52.516;13.460;2024-02-21T04:20:15;7.20;86.30
32502;DHT22;18952;52.516;13.460;2024-02-21T04:22:46;7.20;86.30
32502;DHT22;18952;52.516;13.460;2024-02-21T04:25:13;7.20;86.00
32502;DHT22;18952;52.516;13.460;2024-02-21T04:27:41;7.20;86.10
32502;DHT22;18952;52.516;13.460;2024-02-21T04:30:09;7.10;85.90
32502;DHT22;18952;52.516;13.460;2024-02-21T04:32:37;7.10;86.60
32502;DHT22;18952;52.516;13.460;2024-02-21T04:35:04;7.10;86.30
32502;DHT22;18952;52.516;13.460;2024-02-21T04:37:32;7.10;86.10
32502;DHT22;18952;52.516;13.460;2024-02-21T04:40:02;7.10;85.90
32502;DHT22;18952;52.516;13.460;2024-02-21T04:42:33;7.10;85.90
32502;DHT22;18952;52.516;13.460;2024-02-21T04:45:00;7.10;86.10
32502;DHT22;18952;52.516;13.460;2024-02-21T04:47:28;6.90;86.20
32502;DHT22;18952;52.516;13.460;2024-02-21T04:49:57;7.10;86.10
32502;DHT22;18952;52.516;13.460;2024-02-21T04:52:25;7.00;86.20
32502;DHT22;18952;52.516;13.460;2024-02-21T04:54:52;7.10;85.70
32502;DHT22;18952;52.516;13.460;2024-02-21T04:57:20;7.20;85.70
32502;DHT22;18952;52.516;13.460;2024-02-21T04:59:47;7.00;85.80
32502;DHT22;18952;52.516;13.460;2024-02-21T05:02:16;7.10;86.10
32502;DHT22;18952;52.516;13.460;2024-02-21T05:04:43;7.20;85.90
32502;DHT22;18952;52.516;13.460;2024-02-21T05:07:19;7.20;85.60
32502;DHT22;18952;52.516;13.460;2024-02-21T05:09:46;7.10;85.50
32502;DHT22;18952;52.516;13.460;2024-02-21T05:12:13;7.10;85.50
32502;DHT22;18952;52.516;13.460;2024-02-21T05:14:43;7.00;85.80
32502;DHT22;18952;52.516;13.460;2024-02-21T05:17:11;7.10;85.40
32502;DHT22;18952;52.516;13.460;2024-02-21T05:19:40;7.20;85.00
32502;DHT22;18952;52.516;13.460;2024-02-21T05:22:07;7.20;85.00
32502;DHT22;18952;52.516;13.460;2024-02-21T05:24:34;7.20;85.20
32502;DHT22;18952;52.516;13.460;2024-02-21T05:27:04;7.20;85.40
32502;DHT22;18952;52.516;13.460;2024-02-21T05:29:33;7.10;85.30
32502;DHT22;18952;52.516;13.460;2024-02-21T05:32:01;7.10;85.30
32502;DHT22;18952;52.516;13.460;2024-02-21T05:34:29;7.10;85.20
32502;DHT22;18952;52.516;13.460;2024-02-21T05:36:56;7.20;85.30
32502;DHT22;18952;52.516;13.460;2024-02-21T05:39:24;7.10;85.00
32502;DHT22;18952;52.516;13.460;2024-02-21T05:41:50;7.10;84.90
32502;DHT22;18952;52.516;13.460;2024-02-21T05:44:19;7.10;84.90
32502;DHT22;18952;52.516;13.460;2024-02-21T05:46:46;7.10;84.90
32502;DHT22;18952;52.516;13.460;2024-02-21T05:49:14;7.10;85.10
32502;DHT22;18952;52.516;13.460;2024-02-21T05:51:43;7.10;84.90
32502;DHT22;18952;52.516;13.460;2024-02-21T05:54:13;7.20;84.60
32502;DHT22;18952;52.516;13.460;2024-02-21T05:56:44;7.30;84.40
32502;DHT22;18952;52.516;13.460;2024-02-21T05:59:12;7.20;84.90
32502;DHT22;18952;52.516;13.460;2024-02-21T06:01:42;7.30;84.50
32502;DHT22;18952;52.516;13.460;2024-02-21T06:04:10;7.30;84.60
32502;DHT22;18952;52.516;13.460;2024-02-21T06:06:38;7.20;84.20
32502;DHT22;18952;52.516;13.460;2024-02-21T06:09:05;7.30;84.30
32502;DHT22;18952;52.516;13.460;2024-02-21T06:11:31;7.30;84.40
32502;DHT22;18952;52.516;13.460;2024-02-21T06:13:58;7.20;84.50
32502;DHT22;18952;52.516;13.460;2024-02-21T06:16:27;7.30;84.40
32502;DHT22;18952;52.516;13.460;2024-02-21T06:18:55;7.30;84.40
32502;DHT22;18952;52.516;13.460;2024-02-21T06:21:22;7.30;84.00
32502;DHT22;18952;52.516;13.460;2024-02-21T06:23:50;7.30;84.20
32502;DHT22;18952;52.516;13.460;2024-02-21T06:26:17;7.20;84.40
32502;DHT22;18952;52.516;13.460;2024-02-21T06:28:45;7.20;84.60
32502;DHT22;18952;52.516;13.460;2024-02-21T06:31:12;7.20;84.90
32502;DHT22;18952;52.516;13.460;2024-02-21T06:33:40;7.20;84.70
32502;DHT22;18952;52.516;13.460;2024-02-21T06:36:08;7.20;84.60
32502;DHT22;18952;52.516;13.460;2024-02-21T06:38:36;7.30;84.50
32502;DHT22;18952;52.516;13.460;2024-02-21T06:41:03;7.20;84.10
32502;DHT22;18952;52.516;13.460;2024-02-21T06:43:30;7.30;84.20
32502;DHT22;18952;52.516;13.460;2024-02-21T06:45:57;7.30;84.00
32502;DHT22;18952;52.516;13.460;2024-02-21T06:48:26;7.30;83.80
32502;DHT22;18952;52.516;13.460;2024-02-21T06:50:54;7.30;83.70
32502;DHT22;18952;52.516;13.460;2024-02-21T06:53:20;7.30;83.80
32502;DHT22;18952;52.516;13.460;2024-02-21T06:55:48;7.30;84.00
32502;DHT22;18952;52.516;13.460;2024-02-21T06:58:16;7.50;84.00
32502;DHT22;18952;52.516;13.460;2024-02-21T07:00:44;7.70;83.40
32502;DHT22;18952;52.516;13.460;2024-02-21T07:03:15;7.70;82.40
32502;DHT22;18952;52.516;13.460;2024-02-21T07:05:44;7.60;82.80
32502;DHT22;18952;52.516;13.460;2024-02-21T07:08:13;7.50;82.80
32502;DHT22;18952;52.516;13.460;2024-02-21T07:10:43;7.50;82.90
32502;DHT22;18952;52.516;13.460;2024-02-21T07:13:10;7.50;83.00
32502;DHT22;18952;52.516;13.460;2024-02-21T07:15:38;7.60;82.90
32502;DHT22;18952;52.516;13.460;2024-02-21T07:18:06;7.50;82.80
32502;DHT22;18952;52.516;13.460;2024-02-21T07:20:33;7.50;82.70
32502;DHT22;18952;52.516;13.460;2024-02-21T07:23:01;7.60;82.30
32502;DHT22;18952;52.516;13.460;2024-02-21T07:25:31;7.60;82.30
32502;DHT22;18952;52.516;13.460;2024-02-21T07:28:01;7.70;82.40
32502;DHT22;18952;52.516;13.460;2024-02-21T07:30:32;7.70;81.70
32502;DHT22;18952;52.516;13.460;2024-02-21T07:33:02;7.70;82.20
32502;DHT22;18952;52.516;13.460;2024-02-21T07:35:30;7.70;81.50
32502;DHT22;18952;52.516;13.460;2024-02-21T07:37:58;7.60;81.90
32502;DHT22;18952;52.516;13.460;2024-02-21T07:40:26;7.60;82.00
32502;DHT22;18952;52.516;13.460;2024-02-21T07:42:54;7.60;82.20
32502;DHT22;18952;52.516;13.460;2024-02-21T07:45:21;7.60;81.90
32502;DHT22;18952;52.516;13.460;2024-02-21T07:47:47;7.60;82.00
32502;DHT22;18952;52.516;13.460;2024-02-21T07:50:16;7.60;81.50
32502;DHT22;18952;52.516;13.460;2024-02-21T07:52:44;7.60;81.80
32502;DHT22;18952;52.516;13.460;2024-02-21T07:55:12;7.70;81.50
32502;DHT22;18952;52.516;13.460;2024-02-21T07:57:40;7.70;81.00
32502;DHT22;18952;52.516;13.460;2024-02-21T08:00:09;7.60;80.90
32502;DHT22;18952;52.516;13.460;2024-02-21T08:02:40;7.70;80.90
32502;DHT22;18952;52.516;13.460;2024-02-21T08:05:10;7.70;80.90
32502;DHT22;18952;52.516;13.460;2024-02-21T08:07:37;7.70;80.50
32502;DHT22;18952;52.516;13.460;2024-02-21T08:10:05;7.70;80.80
32502;DHT22;18952;52.516;13.460;2024-02-21T08:12:32;7.80;80.40
32502;DHT22;18952;52.516;13.460;2024-02-21T08:14:59;7.70;80.10
32502;DHT22;18952;52.516;13.460;2024-02-21T08:17:29;7.80;80.30
32502;DHT22;18952;52.516;13.460;2024-02-21T08:19:59;8.00;79.70
32502;DHT22;18952;52.516;13.460;2024-02-21T08:22:29;8.00;78.90
32502;DHT22;18952;52.516;13.460;2024-02-21T08:25:00;7.90;79.10
32502;DHT22;18952;52.516;13.460;2024-02-21T08:27:27;8.00;79.60
32502;DHT22;18952;52.516;13.460;2024-02-21T08:29:54;8.00;79.20
32502;DHT22;18952;52.516;13.460;2024-02-21T08:32:21;8.00;78.70
32502;DHT22;18952;52.516;13.460;2024-02-21T08:34:49;8.10;78.40
32502;DHT22;18952;52.516;13.460;2024-02-21T08:37:17;8.10;78.60
32502;DHT22;18952;52.516;13.460;2024-02-21T08:39:48;8.20;78.30
32502;DHT22;18952;52.516;13.460;2024-02-21T08:42:14;8.20;77.70
32502;DHT22;18952;52.516;13.460;2024-02-21T08:44:42;8.30;78.00
32502;DHT22;18952;52.516;13.460;2024-02-21T08:47:09;8.30;77.90
32502;DHT22;18952;52.516;13.460;2024-02-21T08:49:36;8.40;77.20
32502;DHT22;18952;52.516;13.460;2024-02-21T08:52:05;8.30;77.40
32502;DHT22;18952;52.516;13.460;2024-02-21T08:54:32;8.30;77.30
32502;DHT22;18952;52.516;13.460;2024-02-21T08:57:00;8.30;77.50
32502;DHT22;18952;52.516;13.460;2024-02-21T08:59:27;8.30;77.40
32502;DHT22;18952;52.516;13.460;2024-02-21T09:01:54;8.40;76.80
32502;DHT22;18952;52.516;13.460;2024-02-21T09:04:21;8.50;76.50
32502;DHT22;18952;52.516;13.460;2024-02-21T09:06:49;8.50;76.30
32502;DHT22;18952;52.516;13.460;2024-02-21T09:09:15;8.50;76.60
32502;DHT22;18952;52.516;13.460;2024-02-21T09:11:43;8.50;76.40
32502;DHT22;18952;52.516;13.460;2024-02-21T09:14:10;8.40;76.50
32502;DHT22;18952;52.516;13.460;2024-02-21T09:16:38;8.40;76.50
32502;DHT22;18952;52.516;13.460;2024-02-21T09:19:05;8.50;76.30
32502;DHT22;18952;52.516;13.460;2024-02-21T09:21:33;8.50;76.30
32502;DHT22;18952;52.516;13.460;2024-02-21T09:24:01;8.60;76.10
32502;DHT22;18952;52.516;13.460;2024-02-21T09:26:28;8.60;76.30
32502;DHT22;18952;52.516;13.460;2024-02-21T09:28:55;8.60;75.70
32502;DHT22;18952;52.516;13.460;2024-02-21T09:31:22;8.50;76.00
32502;DHT22;18952;52.516;13.460;2024-02-21T09:33:52;8.50;75.60
32502;DHT22;18952;52.516;13.460;2024-02-21T09:36:19;8.70;75.70
32502;DHT22;18952;52.516;13.460;2024-02-21T09:38:47;8.70;75.40
32502;DHT22;18952;52.516;13.460;2024-02-21T09:41:18;8.80;74.80
32502;DHT22;18952;52.516;13.460;2024-02-21T09:43:55;8.80;74.50
32502;DHT22;18952;52.516;13.460;2024-02-21T09:46:51;8.80;74.20
32502;DHT22;18952;52.516;13.460;2024-02-21T09:49:34;8.80;74.40
32502;DHT22;18952;52.516;13.460;2024-02-21T09:52:05;8.80;74.10
32502;DHT22;18952;52.516;13.460;2024-02-21T09:54:36;8.80;74.60
32502;DHT22;18952;52.516;13.460;2024-02-21T09:57:03;9.00;73.80
32502;DHT22;18952;52.516;13.460;2024-02-21T09:59:32;9.00;73.40
32502;DHT22;18952;52.516;13.460;2024-02-21T10:01:59;8.90;73.90
32502;DHT22;18952;52.516;13.460;2024-02-21T10:04:31;8.90;73.50
32502;DHT22;18952;52.516;13.460;2024-02-21T10:06:59;8.90;73.50
32502;DHT22;18952;52.516;13.460;2024-02-21T10:09:28;8.90;73.20
32502;DHT22;18952;52.516;13.460;2024-02-21T10:12:18;9.00;73.80
32502;DHT22;18952;52.516;13.460;2024-02-21T10:14:46;9.00;73.40
32502;DHT22;18952;52.516;13.460;2024-02-21T10:17:17;9.00;73.20
32502;DHT22;18952;52.516;13.460;2024-02-21T10:19:44;9.10;73.00
32502;DHT22;18952;52.516;13.460;2024-02-21T10:22:15;9.10;72.70
32502;DHT22;18952;52.516;13.460;2024-02-21T10:24:43;9.20;72.50
32502;DHT22;18952;52.516;13.460;2024-02-21T10:27:10;9.20;71.90
32502;DHT22;18952;52.516;13.460;2024-02-21T10:29:38;9.00;72.70
32502;DHT22;18952;52.516;13.460;2024-02-21T10:32:12;9.00;72.70
32502;DHT22;18952;52.516;13.460;2024-02-21T10:34:42;9.10;72.30
32502;DHT22;18952;52.516;13.460;2024-02-21T10:37:12;9.10;72.40
32502;DHT22;18952;52.516;13.460;2024-02-21T10:39:42;9.00;72.80
32502;DHT22;18952;52.516;13.460;2024-02-21T10:42:11;9.10;72.70
32502;DHT22;18952;52.516;13.460;2024-02-21T10:44:41;9.20;72.40
32502;DHT22;18952;52.516;13.460;2024-02-21T10:47:14;9.20;71.90
32502;DHT22;18952;52.516;13.460;2024-02-21T10:49:45;9.20;72.50
32502;DHT22;18952;52.516;13.460;2024-02-21T10:55:26;9.40;71.90
32502;DHT22;18952;52.516;13.460;2024-02-21T10:57:54;9.50;71.90
32502;DHT22;18952;52.516;13.460;2024-02-21T11:00:27;9.50;71.30
32502;DHT22;18952;52.516;13.460;2024-02-21T11:02:58;9.40;71.80
32502;DHT22;18952;52.516;13.460;2024-02-21T11:05:28;9.40;71.60
32502;DHT22;18952;52.516;13.460;2024-02-21T11:08:07;9.30;72.40
32502;DHT22;18952;52.516;13.460;2024-02-21T11:10:37;9.30;72.60
32502;DHT22;18952;52.516;13.460;2024-02-21T11:13:10;9.30;72.80
32502;DHT22;18952;52.516;13.460;2024-02-21T11:15:39;9.40;73.30
32502;DHT22;18952;52.516;13.460;2024-02-21T11:18:07;9.40;73.60
32502;DHT22;18952;52.516;13.460;2024-02-21T11:20:38;9.50;73.50
32502;DHT22;18952;52.516;13.460;2024-02-21T11:23:05;9.50;73.30
32502;DHT22;18952;52.516;13.460;2024-02-21T11:25:33;9.60;73.20
32502;DHT22;18952;52.516;13.460;2024-02-21T11:28:04;9.50;73.40
32502;DHT22;18952;52.516;13.460;2024-02-21T11:30:35;9.60;72.90
32502;DHT22;18952;52.516;13.460;2024-02-21T11:33:06;9.70;72.60
32502;DHT22;18952;52.516;13.460;2024-02-21T11:35:36;9.90;71.70
32502;DHT22;18952;52.516;13.460;2024-02-21T11:38:14;9.80;71.60
32502;DHT22;18952;52.516;13.460;2024-02-21T11:40:46;10.00;71.70
32502;DHT22;18952;52.516;13.460;2024-02-21T11:43:15;10.00;71.10
32502;DHT22;18952;52.516;13.460;2024-02-21T11:45:42;10.00;71.50
32502;DHT22;18952;52.516;13.460;2024-02-21T11:48:09;10.10;70.50
32502;DHT22;18952;52.516;13.460;2024-02-21T11:50:37;10.00;70.80
32502;DHT22;18952;52.516;13.460;2024-02-21T11:53:09;10.10;70.00
32502;DHT22;18952;52.516;13.460;2024-02-21T11:55:37;10.10;69.90
32502;DHT22;18952;52.516;13.460;2024-02-21T11:58:06;10.10;70.00
32502;DHT22;18952;52.516;13.460;2024-02-21T12:00:35;10.20;69.50
32502;DHT22;18952;52.516;13.460;2024-02-21T12:03:04;10.30;68.80
32502;DHT22;18952;52.516;13.460;2024-02-21T12:05:33;10.30;68.80
32502;DHT22;18952;52.516;13.460;2024-02-21T12:08:00;10.30;68.80
32502;DHT22;18952;52.516;13.460;2024-02-21T12:10:28;10.40;68.10
32502;DHT22;18952;52.516;13.460;2024-02-21T12:13:14;10.30;68.40
32502;DHT22;18952;52.516;13.460;2024-02-21T12:15:47;10.50;67.80
32502;DHT22;18952;52.516;13.460;2024-02-21T12:18:14;10.50;67.70
32502;DHT22;18952;52.516;13.460;2024-02-21T12:20:41;10.60;68.10
32502;DHT22;18952;52.516;13.460;2024-02-21T12:23:12;10.70;67.50
32502;DHT22;18952;52.516;13.460;2024-02-21T12:25:40;10.80;66.80
32502;DHT22;18952;52.516;13.460;2024-02-21T12:28:08;10.90;66.60
32502;DHT22;18952;52.516;13.460;2024-02-21T12:30:37;10.90;66.00
32502;DHT22;18952;52.516;13.460;2024-02-21T12:33:08;10.90;66.40
32502;DHT22;18952;52.516;13.460;2024-02-21T12:35:34;10.80;66.30
32502;DHT22;18952;52.516;13.460;2024-02-21T12:38:04;10.90;66.70
32502;DHT22;18952;52.516;13.460;2024-02-21T12:40:34;11.10;66.40
32502;DHT22;18952;52.516;13.460;2024-02-21T12:43:03;11.20;66.20
32502;DHT22;18952;52.516;13.460;2024-02-21T12:45:30;11.40;65.80
32502;DHT22;18952;52.516;13.460;2024-02-21T12:47:58;11.60;64.80
32502;DHT22;18952;52.516;13.460;2024-02-21T12:50:26;11.70;64.50
32502;DHT22;18952;52.516;13.460;2024-02-21T12:52:54;11.80;64.40
32502;DHT22;18952;52.516;13.460;2024-02-21T12:55:21;11.70;63.60
32502;DHT22;18952;52.516;13.460;2024-02-21T12:57:47;11.50;64.30
32502;DHT22;18952;52.516;13.460;2024-02-21T13:00:16;11.30;64.60
32502;DHT22;18952;52.516;13.460;2024-02-21T13:02:45;11.30;65.10
32502;DHT22;18952;52.516;13.460;2024-02-21T13:05:11;11.40;65.20
32502;DHT22;18952;52.516;13.460;2024-02-21T13:07:40;11.50;64.50
32502;DHT22;18952;52.516;13.460;2024-02-21T13:10:07;11.50;64.30
32502;DHT22;18952;52.516;13.460;2024-02-21T13:12:36;11.40;64.50
32502;DHT22;18952;52.516;13.460;2024-02-21T13:15:05;11.40;64.70
32502;DHT22;18952;52.516;13.460;2024-02-21T13:17:35;11.50;64.50
32502;DHT22;18952;52.516;13.460;2024-02-21T13:20:04;11.50;63.70
32502;DHT22;18952;52.516;13.460;2024-02-21T13:22:34;11.40;63.80
32502;DHT22;18952;52.516;13.460;2024-02-21T13:25:01;11.40;64.10
32502;DHT22;18952;52.516;13.460;2024-02-21T13:27:29;11.50;64.00
32502;DHT22;18952;52.516;13.460;2024-02-21T13:29:55;11.50;64.00
32502;DHT22;18952;52.516;13.460;2024-02-21T13:32:25;11.50;64.00
32502;DHT22;18952;52.516;13.460;2024-02-21T13:34:54;11.40;64.70
32502;DHT22;18952;52.516;13.460;2024-02-21T13:37:25;11.50;64.50
32502;DHT22;18952;52.516;13.460;2024-02-21T13:39:56;11.50;63.80
32502;DHT22;18952;52.516;13.460;2024-02-21T13:42:24;11.40;64.40
32502;DHT22;18952;52.516;13.460;2024-02-21T13:44:54;11.50;64.30
32502;DHT22;18952;52.516;13.460;2024-02-21T13:47:24;11.50;64.20
32502;DHT22;18952;52.516;13.460;2024-02-21T13:49:51;11.50;64.20
32502;DHT22;18952;52.516;13.460;2024-02-21T13:52:18;11.50;64.00
32502;DHT22;18952;52.516;13.460;2024-02-21T13:54:47;11.40;64.50
32502;DHT22;18952;52.516;13.460;2024-02-21T13:57:14;11.30;64.60
32502;DHT22;18952;52.516;13.460;2024-02-21T13:59:44;11.30;64.60
32502;DHT22;18952;52.516;13.460;2024-02-21T14:02:11;11.20;64.70
32502;DHT22;18952;52.516;13.460;2024-02-21T14:04:39;11.00;65.20
32502;DHT22;18952;52.516;13.460;2024-02-21T14:07:14;11.10;65.40
32502;DHT22;18952;52.516;13.460;2024-02-21T14:09:42;11.10;65.30
32502;DHT22;18952;52.516;13.460;2024-02-21T14:12:08;11.20;64.90
32502;DHT22;18952;52.516;13.460;2024-02-21T14:14:37;11.20;64.60
32502;DHT22;18952;52.516;13.460;2024-02-21T14:17:07;11.30;64.50
32502;DHT22;18952;52.516;13.460;2024-02-21T14:19:35;11.40;64.00
32502;DHT22;18952;52.516;13.460;2024-02-21T14:22:04;11.40;64.00
32502;DHT22;18952;52.516;13.460;2024-02-21T14:24:31;11.30;64.10
32502;DHT22;18952;52.516;13.460;2024-02-21T14:26:59;11.30;63.40
32502;DHT22;18952;52.516;13.460;2024-02-21T14:29:26;11.20;63.90
32502;DHT22;18952;52.516;13.460;2024-02-21T14:31:54;11.30;63.90
32502;DHT22;18952;52.516;13.460;2024-02-21T14:34:22;11.20;64.20
32502;DHT22;18952;52.516;13.460;2024-02-21T14:36:54;11.40;63.80
32502;DHT22;18952;52.516;13.460;2024-02-21T14:39:20;11.40;63.60
32502;DHT22;18952;52.516;13.460;2024-02-21T14:41:48;11.40;63.20
32502;DHT22;18952;52.516;13.460;2024-02-21T14:44:16;11.40;63.30
32502;DHT22;18952;52.516;13.460;2024-02-21T14:46:45;11.40;63.30
32502;DHT22;18952;52.516;13.460;2024-02-21T14:49:13;11.40;63.10
32502;DHT22;18952;52.516;13.460;2024-02-21T14:51:44;11.20;63.60
32502;DHT22;18952;52.516;13.460;2024-02-21T14:54:11;11.20;63.80
32502;DHT22;18952;52.516;13.460;2024-02-21T14:56:38;11.20;63.40
32502;DHT22;18952;52.516;13.460;2024-02-21T14:59:05;11.20;63.70
32502;DHT22;18952;52.516;13.460;2024-02-21T15:01:45;11.20;63.90
32502;DHT22;18952;52.516;13.460;2024-02-21T15:04:13;11.20;63.80
32502;DHT22;18952;52.516;13.460;2024-02-21T15:06:41;11.20;63.60
32502;DHT22;18952;52.516;13.460;2024-02-21T15:09:12;11.10;64.10
32502;DHT22;18952;52.516;13.460;2024-02-21T15:11:42;11.10;64.10
32502;DHT22;18952;52.516;13.460;2024-02-21T15:14:09;11.20;64.00
32502;DHT22;18952;52.516;13.460;2024-02-21T15:16:38;11.20;63.70
32502;DHT22;18952;52.516;13.460;2024-02-21T15:19:06;11.20;63.90
32502;DHT22;18952;52.516;13.460;2024-02-21T15:21:35;11.20;63.40
32502;DHT22;18952;52.516;13.460;2024-02-21T15:24:08;11.30;63.40
32502;DHT22;18952;52.516;13.460;2024-02-21T15:26:34;11.20;63.60
32502;DHT22;18952;52.516;13.460;2024-02-21T15:29:02;11.30;63.50
32502;DHT22;18952;52.516;13.460;2024-02-21T15:31:31;11.20;63.40
32502;DHT22;18952;52.516;13.460;2024-02-21T15:33:57;11.20;63.50
32502;DHT22;18952;52.516;13.460;2024-02-21T15:36:27;11.20;63.30
32502;DHT22;18952;52.516;13.460;2024-02-21T15:38:54;11.00;63.50